createdAt,value
2022-11-23T00:01:21.506Z,98457.00
2022-11-23T00:03:51.277Z,98452.41
2022-11-23T00:06:19.223Z,98452.22
2022-11-23T00:08:46.544Z,98458.50
2022-11-23T00:11:14.453Z,98455.38
2022-11-23T00:13:43.822Z,98456.00
2022-11-23T00:16:19.911Z,98455.28
2022-11-23T00:18:48.144Z,98460.31
2022-11-23T00:21:17.155Z,98462.63
2022-11-23T00:23:45.356Z,98460.13
2022-11-23T00:26:13.971Z,98461.59
2022-11-23T00:28:42.165Z,98457.75
2022-11-23T00:31:11.965Z,98446.66
2022-11-23T00:33:39.981Z,98459.72
2022-11-23T00:36:10.901Z,98452.13
2022-11-23T00:38:38.645Z,98447.41
2022-11-23T00:41:12.988Z,98448.22
2022-11-23T00:43:40.648Z,98455.72
2022-11-23T00:46:21.193Z,98452.81
2022-11-23T00:48:50.661Z,98459.91
2022-11-23T00:51:21.042Z,98457.50
2022-11-23T00:53:49.861Z,98440.78
2022-11-23T00:56:18.345Z,98445.13
2022-11-23T00:58:52.945Z,98446.75
2022-11-23T01:01:22.461Z,98432.78
2022-11-23T01:03:55.891Z,98436.97
2022-11-23T01:06:28.264Z,98452.66
2022-11-23T01:08:58.196Z,98449.97
2022-11-23T01:11:28.369Z,98446.06
2022-11-23T01:13:56.110Z,98432.03
2022-11-23T01:16:27.571Z,98438.03
2022-11-23T01:18:59.344Z,98430.41
2022-11-23T01:21:28.961Z,98436.69
2022-11-23T01:23:56.460Z,98431.06
2022-11-23T01:26:23.936Z,98424.31
2022-11-23T01:28:51.671Z,98405.19
2022-11-23T01:31:22.732Z,98422.63
2022-11-23T01:33:54.715Z,98420.94
2022-11-23T01:36:24.327Z,98415.50
2022-11-23T01:38:52.245Z,98413.91
2022-11-23T01:41:24.352Z,98417.69
2022-11-23T01:43:52.058Z,98422.00
2022-11-23T01:46:19.912Z,98413.22
2022-11-23T01:48:51.089Z,98406.03
2022-11-23T01:51:22.274Z,98402.78
2022-11-23T01:53:52.793Z,98411.31
2022-11-23T01:56:23.693Z,98401.47
2022-11-23T01:58:53.073Z,98404.69
2022-11-23T02:01:20.812Z,98402.06
2022-11-23T02:03:49.244Z,98406.88
2022-11-23T02:06:18.728Z,98410.13
2022-11-23T02:08:47.361Z,98393.91
2022-11-23T02:11:16.552Z,98402.00
2022-11-23T02:13:47.849Z,98402.97
2022-11-23T02:16:15.241Z,98406.59
2022-11-23T02:18:45.234Z,98406.25
2022-11-23T02:21:13.116Z,98397.56
2022-11-23T02:23:57.583Z,98408.78
2022-11-23T02:26:31.166Z,98405.19
2022-11-23T02:29:20.377Z,98414.50
2022-11-23T02:32:06.744Z,98410.66
2022-11-23T02:34:34.074Z,98404.81
2022-11-23T02:37:01.722Z,98415.66
2022-11-23T02:39:36.930Z,98403.91
2022-11-23T02:42:05.351Z,98398.13
2022-11-23T02:44:55.258Z,98401.44
2022-11-23T02:47:22.920Z,98407.78
2022-11-23T02:49:50.265Z,98393.84
2022-11-23T02:52:19.129Z,98391.13
2022-11-23T02:54:46.810Z,98389.50
2022-11-23T02:57:14.723Z,98405.03
2022-11-23T02:59:45.003Z,98397.62
2022-11-23T03:02:12.895Z,98410.94
2022-11-23T03:04:40.670Z,98409.25
2022-11-23T03:07:08.046Z,98405.00
2022-11-23T03:09:35.873Z,98415.41
2022-11-23T03:12:03.303Z,98401.66
2022-11-23T03:14:30.717Z,98401.50
2022-11-23T03:16:59.898Z,98393.37
2022-11-23T03:19:27.668Z,98383.84
2022-11-23T03:21:55.082Z,98390.91
2022-11-23T03:24:24.733Z,98392.00
2022-11-23T03:26:52.673Z,98414.19
2022-11-23T03:29:20.230Z,98406.03
2022-11-23T03:31:47.988Z,98405.53
2022-11-23T03:34:15.725Z,98403.50
2022-11-23T03:36:44.070Z,98406.63
2022-11-23T03:39:12.123Z,98407.31
2022-11-23T03:41:40.664Z,98399.34
2022-11-23T03:44:08.915Z,98399.50
2022-11-23T03:46:36.483Z,98401.59
2022-11-23T03:49:03.881Z,98392.37
2022-11-23T03:51:31.240Z,98386.34
2022-11-23T03:53:58.814Z,98400.06
2022-11-23T03:56:26.138Z,98408.13
2022-11-23T03:58:53.608Z,98400.41
2022-11-23T04:01:21.738Z,98394.06
2022-11-23T04:03:50.321Z,98406.47
2022-11-23T04:06:18.417Z,98389.06
2022-11-23T04:08:46.447Z,98394.31
2022-11-23T04:11:15.232Z,98391.34
2022-11-23T04:13:42.721Z,98397.88
2022-11-23T04:16:10.118Z,98406.00
2022-11-23T04:18:37.803Z,98405.47
2022-11-23T04:21:05.369Z,98403.09
2022-11-23T04:23:32.688Z,98397.88
2022-11-23T04:26:00.693Z,98396.09
2022-11-23T04:28:29.267Z,98425.66
2022-11-23T04:30:58.790Z,98407.87
2022-11-23T04:33:29.111Z,98408.22
2022-11-23T04:35:59.118Z,98406.75
2022-11-23T04:38:26.830Z,98407.37
2022-11-23T04:40:54.535Z,98414.44
2022-11-23T04:43:21.898Z,98411.34
2022-11-23T04:45:52.696Z,98415.00
2022-11-23T04:48:21.226Z,98410.53
2022-11-23T04:50:50.855Z,98414.19
2022-11-23T04:53:23.558Z,98408.78
2022-11-23T04:55:51.264Z,98402.72
2022-11-23T04:58:18.710Z,98412.16
2022-11-23T05:00:50.540Z,98414.03
2022-11-23T05:03:18.561Z,98404.56
2022-11-23T05:05:46.120Z,98411.75
2022-11-23T05:08:13.909Z,98413.50
2022-11-23T05:10:43.900Z,98417.84
2022-11-23T05:13:11.526Z,98422.56
2022-11-23T05:15:38.880Z,98421.09
2022-11-23T05:18:07.201Z,98408.84
2022-11-23T05:20:34.748Z,98415.25
2022-11-23T05:23:02.089Z,98417.03
2022-11-23T05:25:30.102Z,98414.75
2022-11-23T05:28:00.997Z,98411.75
2022-11-23T05:30:31.843Z,98405.28
2022-11-23T05:33:02.988Z,98410.63
2022-11-23T05:35:30.867Z,98403.44
2022-11-23T05:37:58.622Z,98395.88
2022-11-23T05:40:26.600Z,98389.94
2022-11-23T05:42:58.483Z,98388.22
2022-11-23T05:45:27.053Z,98390.63
2022-11-23T05:47:56.743Z,98396.50
2022-11-23T05:50:26.709Z,98387.97
2022-11-23T05:53:09.019Z,98395.25
2022-11-23T05:55:37.049Z,98400.50
2022-11-23T05:58:04.522Z,98400.16
2022-11-23T06:00:32.190Z,98397.09
2022-11-23T06:03:02.997Z,98398.22
2022-11-23T06:05:31.508Z,98406.84
2022-11-23T06:07:58.888Z,98404.88
2022-11-23T06:10:26.838Z,98405.66
2022-11-23T06:12:55.630Z,98409.47
2022-11-23T06:15:23.339Z,98421.69
2022-11-23T06:17:51.328Z,98429.41
2022-11-23T06:20:19.414Z,98434.44
2022-11-23T06:22:53.293Z,98421.84
2022-11-23T06:25:21.544Z,98426.84
2022-11-23T06:27:56.806Z,98423.59
2022-11-23T06:30:25.694Z,98430.50
2022-11-23T06:32:53.260Z,98429.59
2022-11-23T06:35:21.253Z,98430.22
2022-11-23T06:37:50.961Z,98434.72
2022-11-23T06:40:18.729Z,98433.50
2022-11-23T06:42:46.202Z,98431.72
2022-11-23T06:45:14.575Z,98437.94
2022-11-23T06:47:43.840Z,98427.97
2022-11-23T06:50:11.579Z,98428.97
2022-11-23T06:52:39.464Z,98434.00
2022-11-23T06:55:06.987Z,98427.00
2022-11-23T06:57:34.860Z,98426.41
2022-11-23T07:00:05.191Z,98426.78
2022-11-23T07:02:33.134Z,98437.56
2022-11-23T07:05:00.661Z,98443.09
2022-11-23T07:07:28.733Z,98444.03
2022-11-23T07:09:57.673Z,98434.62
2022-11-23T07:12:26.957Z,98439.25
2022-11-23T07:14:54.595Z,98448.00
2022-11-23T07:17:21.940Z,98429.50
2022-11-23T07:19:49.266Z,98441.38
2022-11-23T07:22:17.212Z,98445.91
2022-11-23T07:24:46.856Z,98441.16
2022-11-23T07:27:16.984Z,98436.16
2022-11-23T07:29:45.059Z,98451.81
2022-11-23T07:32:15.148Z,98455.59
2022-11-23T07:34:42.496Z,98455.59
2022-11-23T07:37:10.436Z,98456.50
2022-11-23T07:39:56.443Z,98451.59
2022-11-23T07:42:36.854Z,98457.59
2022-11-23T07:45:09.349Z,98457.72
2022-11-23T07:47:37.500Z,98458.31
2022-11-23T07:50:10.400Z,98465.88
2022-11-23T07:52:38.289Z,98468.87
2022-11-23T07:55:06.130Z,98461.37
2022-11-23T07:57:33.515Z,98467.28
2022-11-23T08:00:01.087Z,98475.53
2022-11-23T08:02:28.490Z,98478.75
2022-11-23T08:04:56.193Z,98477.25
2022-11-23T08:07:23.552Z,98476.09
2022-11-23T08:09:50.948Z,98483.00
2022-11-23T08:12:18.556Z,98473.94
2022-11-23T08:14:45.865Z,98482.66
2022-11-23T08:17:13.238Z,98480.00
2022-11-23T08:19:40.838Z,98488.03
2022-11-23T08:22:08.194Z,98481.34
2022-11-23T08:24:35.717Z,98479.34
2022-11-23T08:27:03.492Z,98487.34
2022-11-23T08:29:31.071Z,98481.44
2022-11-23T08:31:58.669Z,98484.06
2022-11-23T08:34:26.344Z,98489.53
2022-11-23T08:36:53.682Z,98486.69
2022-11-23T08:39:21.146Z,98488.66
2022-11-23T08:41:48.824Z,98488.75
2022-11-23T08:44:16.159Z,98485.81
2022-11-23T08:46:43.500Z,98484.59
2022-11-23T08:49:11.086Z,98495.69
2022-11-23T08:51:38.406Z,98486.38
2022-11-23T08:54:05.745Z,98495.91
2022-11-23T08:56:33.330Z,98498.87
2022-11-23T08:59:00.646Z,98500.59
2022-11-23T09:01:28.084Z,98503.59
2022-11-23T09:03:55.718Z,98506.16
2022-11-23T09:06:28.977Z,98496.81
2022-11-23T09:08:57.078Z,98508.63
2022-11-23T09:11:25.637Z,98512.06
2022-11-23T09:13:53.074Z,98518.06
2022-11-23T09:16:20.946Z,98510.00
2022-11-23T09:18:49.525Z,98507.41
2022-11-23T09:21:16.944Z,98515.25
2022-11-23T09:23:44.532Z,98509.16
2022-11-23T09:26:11.850Z,98512.78
2022-11-23T09:28:44.461Z,98507.87
2022-11-23T09:31:12.806Z,98511.66
2022-11-23T09:33:40.144Z,98502.78
2022-11-23T09:36:07.753Z,98503.56
2022-11-23T09:41:53.795Z,98502.78
2022-11-23T09:44:43.856Z,98499.00
2022-11-23T09:47:44.802Z,98494.06
2022-11-23T09:50:22.418Z,98502.25
2022-11-23T09:52:50.139Z,98495.44
2022-11-23T09:55:39.514Z,98498.22
2022-11-23T09:58:07.633Z,98491.22
2022-11-23T10:00:43.872Z,98489.63
2022-11-23T10:03:15.852Z,98487.50
2022-11-23T10:05:50.768Z,98486.88
2022-11-23T10:08:31.666Z,98485.94
2022-11-23T10:11:24.280Z,98487.22
2022-11-23T10:14:07.081Z,98496.53
2022-11-23T10:16:43.950Z,98486.75
2022-11-23T10:19:14.567Z,98488.22
2022-11-23T10:22:04.903Z,98485.78
2022-11-23T10:24:43.189Z,98493.41
2022-11-23T10:27:15.756Z,98482.47
2022-11-23T10:29:45.002Z,98491.75
2022-11-23T10:32:33.384Z,98473.91
2022-11-23T10:35:14.132Z,98483.59
2022-11-23T10:37:41.776Z,98479.88
2022-11-23T10:40:24.849Z,98472.03
2022-11-23T10:42:56.429Z,98478.00
2022-11-23T10:45:26.095Z,98481.81
2022-11-23T10:47:55.857Z,98485.66
2022-11-23T10:50:25.980Z,98487.25
2022-11-23T10:52:59.799Z,98481.19
2022-11-23T10:55:35.112Z,98486.75
2022-11-23T10:58:02.782Z,98479.81
2022-11-23T11:00:30.962Z,98470.25
2022-11-23T11:02:59.763Z,98473.81
2022-11-23T11:08:29.537Z,98476.91
2022-11-23T11:10:58.229Z,98474.69
2022-11-23T11:13:46.361Z,98475.34
2022-11-23T11:16:33.459Z,98469.97
2022-11-23T11:19:23.150Z,98480.25
2022-11-23T11:21:50.746Z,98469.37
2022-11-23T11:24:28.120Z,98466.34
2022-11-23T11:27:01.593Z,98464.38
2022-11-23T11:29:46.567Z,98466.12
2022-11-23T11:32:16.130Z,98472.03
2022-11-23T11:34:53.512Z,98471.31
2022-11-23T11:37:33.373Z,98478.00
2022-11-23T11:40:04.057Z,98480.22
2022-11-23T11:43:01.121Z,98475.59
2022-11-23T11:45:31.897Z,98476.66
2022-11-23T11:48:01.334Z,98471.47
2022-11-23T11:50:43.130Z,98475.59
2022-11-23T11:53:18.801Z,98479.09
2022-11-23T11:55:48.509Z,98472.84
2022-11-23T11:58:17.259Z,98481.31
2022-11-23T12:00:46.928Z,98493.00
2022-11-23T12:03:23.670Z,98489.00
2022-11-23T12:05:56.040Z,98482.09
2022-11-23T12:08:45.433Z,98482.16
2022-11-23T12:11:13.375Z,98489.16
2022-11-23T12:13:43.459Z,98472.69
2022-11-23T12:16:24.105Z,98489.56
2022-11-23T12:19:10.389Z,98492.84
2022-11-23T12:21:37.680Z,98488.72
2022-11-23T12:24:28.229Z,98486.22
2022-11-23T12:27:12.366Z,98485.75
2022-11-23T12:29:49.058Z,98488.22
2022-11-23T12:32:33.369Z,98480.56
2022-11-23T12:35:29.994Z,98483.16
2022-11-23T12:38:15.659Z,98475.50
2022-11-23T12:40:55.654Z,98474.47
2022-11-23T12:43:28.980Z,98468.59
2022-11-23T12:46:26.305Z,98472.97
2022-11-23T12:49:05.670Z,98469.91
2022-11-23T12:51:37.176Z,98480.88
2022-11-23T12:54:27.692Z,98481.97
2022-11-23T12:57:28.353Z,98491.53
2022-11-23T13:00:17.910Z,98481.47
2022-11-23T13:02:57.541Z,98479.47
2022-11-23T13:05:56.912Z,98484.84
2022-11-23T13:08:46.861Z,98488.06
2022-11-23T13:11:36.830Z,98488.25
2022-11-23T13:14:16.860Z,98484.09
2022-11-23T13:16:44.302Z,98487.84
2022-11-23T13:19:22.917Z,98493.84
2022-11-23T13:21:50.563Z,98491.59
2022-11-23T13:24:25.158Z,98495.62
2022-11-23T13:27:14.172Z,98499.31
2022-11-23T13:29:50.906Z,98497.81
2022-11-23T13:32:39.671Z,98498.97
2022-11-23T13:35:30.204Z,98496.16
2022-11-23T13:37:57.444Z,98497.19
2022-11-23T13:40:31.108Z,98505.63
2022-11-23T13:43:01.609Z,98496.09
2022-11-23T13:45:39.232Z,98502.38
2022-11-23T13:48:09.630Z,98496.16
2022-11-23T13:50:47.491Z,98501.72
2022-11-23T13:53:21.835Z,98502.88
2022-11-23T13:55:50.364Z,98497.84
2022-11-23T13:58:23.730Z,98506.03
2022-11-23T14:00:52.355Z,98503.38
2022-11-23T14:04:05.487Z,98505.06
2022-11-23T14:06:45.641Z,98509.09
2022-11-23T14:09:41.258Z,98508.44
2022-11-23T14:12:11.494Z,98504.06
2022-11-23T14:15:16.588Z,98508.63
2022-11-23T14:18:03.288Z,98515.72
2022-11-23T14:20:40.250Z,98512.13
2022-11-23T14:23:32.050Z,98508.78
2022-11-23T14:26:30.927Z,98516.59
2022-11-23T14:29:26.123Z,98521.56
2022-11-23T14:32:19.637Z,98516.31
2022-11-23T14:35:10.739Z,98522.75
2022-11-23T14:37:47.190Z,98526.47
2022-11-23T14:40:52.787Z,98531.41
2022-11-23T14:43:21.255Z,98538.47
2022-11-23T14:45:48.754Z,98531.69
2022-11-23T14:48:33.420Z,98534.66
2022-11-23T14:51:03.664Z,98531.06
2022-11-23T14:53:47.236Z,98528.19
2022-11-23T14:56:34.396Z,98527.81
2022-11-23T14:59:07.677Z,98531.69
2022-11-23T15:01:36.531Z,98531.41
2022-11-23T15:04:23.184Z,98527.72
2022-11-23T15:06:53.506Z,98526.66
2022-11-23T15:09:46.748Z,98531.47
2022-11-23T15:12:25.925Z,98538.41
2022-11-23T15:14:57.240Z,98541.47
2022-11-23T15:17:25.330Z,98554.75
2022-11-23T15:19:58.291Z,98548.00
2022-11-23T15:22:27.264Z,98550.06
2022-11-23T15:24:55.402Z,98555.34
2022-11-23T15:27:29.508Z,98553.63
2022-11-23T15:29:59.432Z,98565.09
2022-11-23T15:32:33.355Z,98562.31
2022-11-23T15:35:07.076Z,98570.56
2022-11-23T15:37:42.812Z,98567.37
2022-11-23T15:40:18.217Z,98569.09
2022-11-23T15:42:47.286Z,98573.25
2022-11-23T15:45:38.099Z,98575.91
2022-11-23T15:48:16.456Z,98571.94
2022-11-23T15:50:51.218Z,98582.19
2022-11-23T15:53:19.641Z,98577.91
2022-11-23T15:55:47.533Z,98584.81
2022-11-23T15:58:18.787Z,98581.19
2022-11-23T16:00:56.768Z,98592.13
2022-11-23T16:03:24.270Z,98605.66
2022-11-23T16:06:13.762Z,98604.78
2022-11-23T16:08:41.696Z,98609.94
2022-11-23T16:11:22.827Z,98607.31
2022-11-23T16:13:50.501Z,98604.84
2022-11-23T16:16:21.426Z,98614.47
2022-11-23T16:18:52.501Z,98611.44
2022-11-23T16:21:20.558Z,98610.31
2022-11-23T16:23:52.427Z,98617.38
2022-11-23T16:26:21.049Z,98619.31
2022-11-23T16:28:49.726Z,98612.19
2022-11-23T16:31:31.680Z,98626.69
2022-11-23T16:33:59.423Z,98630.22
2022-11-23T16:36:28.052Z,98626.09
2022-11-23T16:38:57.615Z,98628.13
2022-11-23T16:41:27.847Z,98626.69
2022-11-23T16:43:55.342Z,98626.81
2022-11-23T16:46:24.432Z,98630.94
2022-11-23T16:48:54.326Z,98631.41
2022-11-23T16:51:22.080Z,98620.09
2022-11-23T16:56:39.140Z,98623.69
2022-11-23T16:59:06.827Z,98622.28
2022-11-23T17:01:35.733Z,98622.75
2022-11-23T17:04:03.901Z,98620.03
2022-11-23T17:06:31.834Z,98619.47
2022-11-23T17:09:07.461Z,98614.31
2022-11-23T17:11:40.092Z,98627.22
2022-11-23T17:14:16.342Z,98633.00
2022-11-23T17:16:46.661Z,98627.50
2022-11-23T17:19:16.388Z,98628.94
2022-11-23T17:21:44.789Z,98633.91
2022-11-23T17:24:14.232Z,98626.50
2022-11-23T17:26:44.557Z,98624.72
2022-11-23T17:29:19.586Z,98630.81
2022-11-23T17:31:50.337Z,98640.09
2022-11-23T17:34:18.842Z,98634.22
2022-11-23T17:36:47.304Z,98640.03
2022-11-23T17:39:21.943Z,98630.06
2022-11-23T17:41:50.182Z,98637.06
2022-11-23T17:44:18.155Z,98632.16
2022-11-23T17:46:50.763Z,98628.13
2022-11-23T17:49:20.387Z,98633.09
2022-11-23T17:51:48.376Z,98640.34
2022-11-23T17:54:16.380Z,98637.03
2022-11-23T17:56:45.204Z,98638.44
2022-11-23T17:59:13.796Z,98637.50
2022-11-23T18:01:41.832Z,98646.16
2022-11-23T18:04:10.442Z,98646.25
2022-11-23T18:06:38.873Z,98647.66
2022-11-23T18:09:07.088Z,98636.34
2022-11-23T18:11:35.280Z,98642.97
2022-11-23T18:14:04.002Z,98642.44
2022-11-23T18:16:31.931Z,98646.00
2022-11-23T18:19:02.828Z,98633.00
2022-11-23T18:21:31.509Z,98638.81
2022-11-23T18:24:04.249Z,98636.81
2022-11-23T18:26:32.888Z,98639.84
2022-11-23T18:29:00.872Z,98644.81
2022-11-23T18:31:29.312Z,98641.22
2022-11-23T18:33:57.594Z,98643.38
2022-11-23T18:36:25.600Z,98646.28
2022-11-23T18:38:53.070Z,98641.91
2022-11-23T18:41:22.652Z,98642.25
2022-11-23T18:43:50.814Z,98649.50
2022-11-23T18:46:21.751Z,98647.47
2022-11-23T18:48:50.728Z,98641.38
2022-11-23T18:51:19.043Z,98647.91
2022-11-23T18:53:48.231Z,98654.03
2022-11-23T18:56:18.153Z,98657.41
2022-11-23T18:58:46.981Z,98656.91
2022-11-23T19:01:20.307Z,98661.72
2022-11-23T19:03:51.057Z,98660.69
2022-11-23T19:06:21.174Z,98659.72
2022-11-23T19:08:57.427Z,98661.56
2022-11-23T19:11:26.032Z,98657.88
2022-11-23T19:13:56.972Z,98666.59
2022-11-23T19:16:27.636Z,98662.81
2022-11-23T19:19:00.692Z,98666.81
2022-11-23T19:21:30.725Z,98673.34
2022-11-23T19:23:59.553Z,98674.37
2022-11-23T19:26:29.402Z,98677.56
2022-11-23T19:28:58.754Z,98674.06
2022-11-23T19:31:29.847Z,98681.47
2022-11-23T19:36:46.724Z,98672.03
2022-11-23T19:39:14.608Z,98676.34
2022-11-23T19:41:42.628Z,98677.16
2022-11-23T19:44:11.343Z,98682.22
2022-11-23T19:46:40.133Z,98682.44
2022-11-23T19:49:08.948Z,98684.47
2022-11-23T19:51:37.167Z,98689.75
2022-11-23T19:54:06.575Z,98686.75
2022-11-23T19:56:37.594Z,98692.09
2022-11-23T19:59:05.952Z,98682.28
2022-11-23T20:01:34.012Z,98691.66
2022-11-23T20:04:09.149Z,98704.47
2022-11-23T20:06:42.649Z,98692.03
2022-11-23T20:09:13.323Z,98698.28
2022-11-23T20:11:40.894Z,98694.84
2022-11-23T20:14:11.118Z,98699.34
2022-11-23T20:16:39.417Z,98711.19
2022-11-23T20:19:08.726Z,98703.44
2022-11-23T20:21:37.667Z,98705.84
2022-11-23T20:24:08.749Z,98708.22
2022-11-23T20:26:37.009Z,98714.28
2022-11-23T20:29:07.290Z,98707.88
2022-11-23T20:31:35.928Z,98708.00
2022-11-23T20:34:07.603Z,98719.19
2022-11-23T20:36:38.311Z,98718.97
2022-11-23T20:39:07.730Z,98724.75
2022-11-23T20:41:36.478Z,98722.84
2022-11-23T20:44:11.623Z,98721.37
2022-11-23T20:49:30.537Z,98733.41
2022-11-23T20:51:59.308Z,98732.69
2022-11-23T20:54:28.422Z,98737.63
2022-11-23T20:56:58.515Z,98740.50
2022-11-23T20:59:26.717Z,98736.66
2022-11-23T21:01:55.115Z,98743.78
2022-11-23T21:04:22.909Z,98749.59
2022-11-23T21:06:50.890Z,98746.22
2022-11-23T21:09:18.635Z,98743.72
2022-11-23T21:12:04.785Z,98742.72
2022-11-23T21:14:33.825Z,98739.81
2022-11-23T21:17:02.722Z,98746.94
2022-11-23T21:19:32.185Z,98753.72
2022-11-23T21:22:03.974Z,98743.63
2022-11-23T21:24:31.637Z,98754.34
2022-11-23T21:26:59.694Z,98751.31
2022-11-23T21:29:27.678Z,98743.75
2022-11-23T21:31:54.997Z,98756.97
2022-11-23T21:34:25.921Z,98751.75
2022-11-23T21:36:54.402Z,98754.34
2022-11-23T21:39:23.099Z,98760.22
2022-11-23T21:41:52.422Z,98753.81
2022-11-23T21:44:19.974Z,98760.72
2022-11-23T21:46:47.372Z,98759.06
2022-11-23T21:49:14.985Z,98759.41
2022-11-23T21:51:43.635Z,98758.00
2022-11-23T21:54:14.213Z,98771.81
2022-11-23T21:56:43.030Z,98772.38
2022-11-23T21:59:11.170Z,98767.88
2022-11-23T22:01:39.427Z,98775.44
2022-11-23T22:04:09.946Z,98774.69
2022-11-23T22:06:38.371Z,98769.16
2022-11-23T22:09:09.244Z,98777.88
2022-11-23T22:11:40.296Z,98768.81
2022-11-23T22:14:12.868Z,98773.66
2022-11-23T22:16:46.061Z,98772.84
2022-11-23T22:19:14.912Z,98776.50
2022-11-23T22:21:46.240Z,98772.31
2022-11-23T22:24:18.341Z,98769.44
2022-11-23T22:26:47.681Z,98779.59
2022-11-23T22:29:15.797Z,98773.47
2022-11-23T22:31:43.798Z,98768.53
2022-11-23T22:34:12.892Z,98770.84
2022-11-23T22:36:40.539Z,98777.19
2022-11-23T22:39:08.241Z,98772.28
2022-11-23T22:41:37.536Z,98782.37
2022-11-23T22:44:09.787Z,98778.69
2022-11-23T22:46:38.540Z,98784.38
2022-11-23T22:49:06.063Z,98781.91
2022-11-23T22:51:33.976Z,98778.06
2022-11-23T22:54:02.196Z,98784.69
2022-11-23T22:56:30.840Z,98783.06
2022-11-23T22:58:58.867Z,98785.88
2022-11-23T23:01:29.114Z,98791.19
2022-11-23T23:03:58.914Z,98801.47
2022-11-23T23:06:29.317Z,98794.16
2022-11-23T23:08:58.968Z,98793.38
2022-11-23T23:11:28.666Z,98806.03
2022-11-23T23:13:56.189Z,98807.56
2022-11-23T23:16:23.908Z,98805.25
2022-11-23T23:18:51.646Z,98808.53
2022-11-23T23:21:21.416Z,98810.63
2022-11-23T23:23:50.742Z,98810.72
2022-11-23T23:26:21.122Z,98814.84
2022-11-23T23:28:48.670Z,98805.34
2022-11-23T23:31:16.998Z,98805.34
2022-11-23T23:33:45.827Z,98813.66
2022-11-23T23:36:17.474Z,98817.59
2022-11-23T23:38:45.516Z,98816.28
2022-11-23T23:41:14.081Z,98814.81
2022-11-23T23:43:42.380Z,98824.97
2022-11-23T23:46:12.008Z,98824.22
2022-11-23T23:48:40.414Z,98829.53
2022-11-23T23:51:16.499Z,98833.31
2022-11-23T23:53:45.129Z,98844.31
2022-11-23T23:56:15.106Z,98839.28
2022-11-23T23:58:43.930Z,98851.72
